sensor_id;sensor_type;location;lat;lon;timestamp;pressure;altitude;pressure_sealevel;temperature;humidity
77452;BME280;66537;52.370;4.832;2024-01-11T00:02:07;103481.53;;;-1.67;100.00
77452;BME280;66537;52.370;4.832;2024-01-11T00:04:33;103481.44;;;-1.69;100.00
77452;BME280;66537;52.370;4.832;2024-01-11T00:06:58;103475.50;;;-1.83;100.00
77452;BME280;66537;52.370;4.832;2024-01-11T00:09:23;103475.59;;;-1.81;100.00
77452;BME280;66537;52.370;4.832;2024-01-11T00:11:48;103471.69;;;-1.89;100.00
77452;BME280;66537;52.370;4.832;2024-01-11T00:14:14;103472.06;;;-1.70;100.00
77452;BME280;66537;52.370;4.832;2024-01-11T00:16:40;103466.88;;;-1.71;100.00
77452;BME280;66537;52.370;4.832;2024-01-11T00:19:06;103467.94;;;-1.68;100.00
77452;BME280;66537;52.370;4.832;2024-01-11T00:21:31;103471.84;;;-1.60;100.00
77452;BME280;66537;52.370;4.832;2024-01-11T00:23:57;103476.38;;;-1.69;100.00
77452;BME280;66537;52.370;4.832;2024-01-11T00:26:22;103474.19;;;-1.50;100.00
77452;BME280;66537;52.370;4.832;2024-01-11T00:28:47;103477.50;;;-1.64;100.00
77452;BME280;66537;52.370;4.832;2024-01-11T00:31:12;103475.91;;;-1.49;100.00
77452;BME280;66537;52.370;4.832;2024-01-11T00:33:39;103473.81;;;-1.69;100.00
77452;BME280;66537;52.370;4.832;2024-01-11T00:36:04;103470.84;;;-1.36;100.00
77452;BME280;66537;52.370;4.832;2024-01-11T00:38:29;103471.81;;;-1.47;100.00
77452;BME280;66537;52.370;4.832;2024-01-11T00:40:55;103465.19;;;-1.17;100.00
77452;BME280;66537;52.370;4.832;2024-01-11T00:43:20;103469.34;;;-1.32;100.00
77452;BME280;66537;52.370;4.832;2024-01-11T00:45:45;103477.66;;;-1.35;100.00
77452;BME280;66537;52.370;4.832;2024-01-11T00:48:11;103479.56;;;-1.58;100.00
77452;BME280;66537;52.370;4.832;2024-01-11T00:50:37;103482.41;;;-1.93;100.00
77452;BME280;66537;52.370;4.832;2024-01-11T00:53:05;103483.56;;;-2.01;100.00
77452;BME280;66537;52.370;4.832;2024-01-11T00:55:30;103482.91;;;-1.86;100.00
77452;BME280;66537;52.370;4.832;2024-01-11T00:57:56;103483.97;;;-2.08;100.00
77452;BME280;66537;52.370;4.832;2024-01-11T01:00:21;103473.44;;;-1.88;100.00
77452;BME280;66537;52.370;4.832;2024-01-11T01:02:47;103473.44;;;-1.75;100.00
77452;BME280;66537;52.370;4.832;2024-01-11T01:05:12;103476.31;;;-1.43;100.00
77452;BME280;66537;52.370;4.832;2024-01-11T01:07:37;103476.44;;;-1.67;100.00
77452;BME280;66537;52.370;4.832;2024-01-11T01:10:03;103476.66;;;-1.77;100.00
77452;BME280;66537;52.370;4.832;2024-01-11T01:12:28;103480.25;;;-1.74;100.00
77452;BME280;66537;52.370;4.832;2024-01-11T01:14:54;103485.81;;;-1.79;100.00
77452;BME280;66537;52.370;4.832;2024-01-11T01:17:21;103488.09;;;-1.84;100.00
77452;BME280;66537;52.370;4.832;2024-01-11T01:19:47;103486.53;;;-1.82;100.00
77452;BME280;66537;52.370;4.832;2024-01-11T01:22:12;103484.94;;;-1.67;100.00
77452;BME280;66537;52.370;4.832;2024-01-11T01:24:38;103484.84;;;-1.55;100.00
77452;BME280;66537;52.370;4.832;2024-01-11T01:27:03;103488.84;;;-1.59;100.00
77452;BME280;66537;52.370;4.832;2024-01-11T01:29:28;103490.72;;;-1.83;100.00
77452;BME280;66537;52.370;4.832;2024-01-11T01:31:54;103483.50;;;-1.76;100.00
77452;BME280;66537;52.370;4.832;2024-01-11T01:34:19;103487.56;;;-1.92;100.00
77452;BME280;66537;52.370;4.832;2024-01-11T01:36:45;103490.63;;;-1.71;100.00
77452;BME280;66537;52.370;4.832;2024-01-11T01:39:11;103486.00;;;-1.63;100.00
77452;BME280;66537;52.370;4.832;2024-01-11T01:41:36;103489.34;;;-1.77;100.00
77452;BME280;66537;52.370;4.832;2024-01-11T01:44:02;103486.91;;;-1.89;100.00
77452;BME280;66537;52.370;4.832;2024-01-11T01:46:28;103478.78;;;-1.57;100.00
77452;BME280;66537;52.370;4.832;2024-01-11T01:48:54;103487.50;;;-1.67;100.00
77452;BME280;66537;52.370;4.832;2024-01-11T01:51:21;103492.66;;;-1.92;100.00
77452;BME280;66537;52.370;4.832;2024-01-11T01:53:48;103500.47;;;-1.89;100.00
77452;BME280;66537;52.370;4.832;2024-01-11T01:56:16;103517.94;;;-1.93;100.00
77452;BME280;66537;52.370;4.832;2024-01-11T01:58:42;103510.94;;;-1.84;100.00
77452;BME280;66537;52.370;4.832;2024-01-11T02:01:08;103514.53;;;-1.94;100.00
77452;BME280;66537;52.370;4.832;2024-01-11T02:03:35;103519.47;;;-2.08;100.00
77452;BME280;66537;52.370;4.832;2024-01-11T02:06:02;103514.63;;;-1.79;100.00
77452;BME280;66537;52.370;4.832;2024-01-11T02:08:30;103507.69;;;-1.68;100.00
77452;BME280;66537;52.370;4.832;2024-01-11T02:10:57;103510.22;;;-1.55;100.00
77452;BME280;66537;52.370;4.832;2024-01-11T02:13:24;103502.75;;;-1.39;100.00
77452;BME280;66537;52.370;4.832;2024-01-11T02:15:50;103509.91;;;-1.47;100.00
77452;BME280;66537;52.370;4.832;2024-01-11T02:18:15;103509.63;;;-1.51;100.00
77452;BME280;66537;52.370;4.832;2024-01-11T02:20:40;103499.22;;;-1.82;100.00
77452;BME280;66537;52.370;4.832;2024-01-11T02:23:08;103499.41;;;-1.79;100.00
77452;BME280;66537;52.370;4.832;2024-01-11T02:25:36;103512.59;;;-1.98;100.00
77452;BME280;66537;52.370;4.832;2024-01-11T02:28:01;103510.72;;;-2.00;100.00
77452;BME280;66537;52.370;4.832;2024-01-11T02:30:27;103508.25;;;-2.12;100.00
77452;BME280;66537;52.370;4.832;2024-01-11T02:32:53;103495.09;;;-1.93;100.00
77452;BME280;66537;52.370;4.832;2024-01-11T02:35:18;103501.16;;;-2.17;100.00
77452;BME280;66537;52.370;4.832;2024-01-11T02:37:45;103494.91;;;-1.83;100.00
77452;BME280;66537;52.370;4.832;2024-01-11T02:40:13;103505.63;;;-1.74;100.00
77452;BME280;66537;52.370;4.832;2024-01-11T02:42:39;103498.34;;;-1.83;100.00
77452;BME280;66537;52.370;4.832;2024-01-11T02:45:04;103500.66;;;-1.99;100.00
77452;BME280;66537;52.370;4.832;2024-01-11T02:47:30;103491.47;;;-1.84;100.00
77452;BME280;66537;52.370;4.832;2024-01-11T02:49:55;103492.56;;;-1.93;100.00
77452;BME280;66537;52.370;4.832;2024-01-11T02:52:22;103497.72;;;-1.92;100.00
77452;BME280;66537;52.370;4.832;2024-01-11T02:54:48;103501.53;;;-1.98;100.00
77452;BME280;66537;52.370;4.832;2024-01-11T02:57:13;103504.88;;;-1.73;100.00
77452;BME280;66537;52.370;4.832;2024-01-11T02:59:39;103505.53;;;-1.75;100.00
77452;BME280;66537;52.370;4.832;2024-01-11T03:02:05;103510.63;;;-2.02;100.00
77452;BME280;66537;52.370;4.832;2024-01-11T03:04:30;103515.97;;;-2.10;100.00
77452;BME280;66537;52.370;4.832;2024-01-11T03:06:56;103508.75;;;-2.17;100.00
77452;BME280;66537;52.370;4.832;2024-01-11T03:09:21;103504.75;;;-2.14;100.00
77452;BME280;66537;52.370;4.832;2024-01-11T03:11:46;103508.56;;;-1.94;100.00
77452;BME280;66537;52.370;4.832;2024-01-11T03:14:12;103508.75;;;-2.04;100.00
77452;BME280;66537;52.370;4.832;2024-01-11T03:16:37;103522.16;;;-1.94;100.00
77452;BME280;66537;52.370;4.832;2024-01-11T03:19:05;103518.72;;;-2.07;100.00
77452;BME280;66537;52.370;4.832;2024-01-11T03:21:30;103509.50;;;-2.31;100.00
77452;BME280;66537;52.370;4.832;2024-01-11T03:23:55;103516.94;;;-2.08;100.00
77452;BME280;66537;52.370;4.832;2024-01-11T03:26:21;103508.63;;;-2.19;100.00
77452;BME280;66537;52.370;4.832;2024-01-11T03:28:47;103509.41;;;-2.33;100.00
77452;BME280;66537;52.370;4.832;2024-01-11T03:31:13;103508.94;;;-2.14;100.00
77452;BME280;66537;52.370;4.832;2024-01-11T03:33:39;103504.84;;;-2.12;100.00
77452;BME280;66537;52.370;4.832;2024-01-11T03:36:11;103508.75;;;-2.04;100.00
77452;BME280;66537;52.370;4.832;2024-01-11T03:38:37;103504.25;;;-2.08;100.00
77452;BME280;66537;52.370;4.832;2024-01-11T03:41:07;103495.28;;;-2.03;100.00
77452;BME280;66537;52.370;4.832;2024-01-11T03:43:33;103500.56;;;-1.87;100.00
77452;BME280;66537;52.370;4.832;2024-01-11T03:45:58;103508.25;;;-1.86;100.00
77452;BME280;66537;52.370;4.832;2024-01-11T03:48:24;103512.19;;;-1.91;100.00
77452;BME280;66537;52.370;4.832;2024-01-11T03:50:49;103517.16;;;-1.79;100.00
77452;BME280;66537;52.370;4.832;2024-01-11T03:53:14;103515.22;;;-1.57;100.00
77452;BME280;66537;52.370;4.832;2024-01-11T03:55:40;103516.00;;;-1.71;100.00
77452;BME280;66537;52.370;4.832;2024-01-11T03:58:05;103509.16;;;-1.72;100.00
77452;BME280;66537;52.370;4.832;2024-01-11T04:00:30;103505.63;;;-2.13;100.00
77452;BME280;66537;52.370;4.832;2024-01-11T04:02:57;103510.78;;;-2.25;100.00
77452;BME280;66537;52.370;4.832;2024-01-11T04:05:22;103523.78;;;-2.45;100.00
77452;BME280;66537;52.370;4.832;2024-01-11T04:07:47;103528.16;;;-2.18;100.00
77452;BME280;66537;52.370;4.832;2024-01-11T04:10:17;103536.72;;;-2.29;100.00
77452;BME280;66537;52.370;4.832;2024-01-11T04:12:43;103540.16;;;-2.15;100.00
77452;BME280;66537;52.370;4.832;2024-01-11T04:15:08;103548.03;;;-2.24;100.00
77452;BME280;66537;52.370;4.832;2024-01-11T04:17:33;103543.47;;;-2.16;100.00
77452;BME280;66537;52.370;4.832;2024-01-11T04:19:59;103540.31;;;-2.38;100.00
77452;BME280;66537;52.370;4.832;2024-01-11T04:22:24;103546.34;;;-2.36;100.00
77452;BME280;66537;52.370;4.832;2024-01-11T04:24:50;103533.47;;;-2.39;100.00
77452;BME280;66537;52.370;4.832;2024-01-11T04:27:15;103547.91;;;-2.38;100.00
77452;BME280;66537;52.370;4.832;2024-01-11T04:29:40;103556.44;;;-2.25;100.00
77452;BME280;66537;52.370;4.832;2024-01-11T04:32:05;103546.94;;;-2.40;100.00
77452;BME280;66537;52.370;4.832;2024-01-11T04:34:31;103548.13;;;-2.60;100.00
77452;BME280;66537;52.370;4.832;2024-01-11T04:36:56;103560.31;;;-2.54;100.00
77452;BME280;66537;52.370;4.832;2024-01-11T04:39:21;103565.63;;;-2.63;100.00
77452;BME280;66537;52.370;4.832;2024-01-11T04:41:47;103558.53;;;-2.55;100.00
77452;BME280;66537;52.370;4.832;2024-01-11T04:44:13;103553.75;;;-2.64;100.00
77452;BME280;66537;52.370;4.832;2024-01-11T04:46:38;103554.28;;;-2.56;100.00
77452;BME280;66537;52.370;4.832;2024-01-11T04:49:03;103554.78;;;-2.49;100.00
77452;BME280;66537;52.370;4.832;2024-01-11T04:51:29;103553.03;;;-2.50;100.00
77452;BME280;66537;52.370;4.832;2024-01-11T04:53:54;103551.59;;;-2.46;100.00
77452;BME280;66537;52.370;4.832;2024-01-11T04:56:19;103544.03;;;-2.58;100.00
77452;BME280;66537;52.370;4.832;2024-01-11T04:58:45;103542.63;;;-2.41;100.00
77452;BME280;66537;52.370;4.832;2024-01-11T05:01:12;103543.25;;;-2.32;100.00
77452;BME280;66537;52.370;4.832;2024-01-11T05:03:38;103539.34;;;-2.27;100.00
77452;BME280;66537;52.370;4.832;2024-01-11T05:06:03;103541.25;;;-1.99;100.00
77452;BME280;66537;52.370;4.832;2024-01-11T05:08:29;103541.34;;;-1.97;100.00
77452;BME280;66537;52.370;4.832;2024-01-11T05:10:54;103537.88;;;-2.24;100.00
77452;BME280;66537;52.370;4.832;2024-01-11T05:13:19;103542.38;;;-2.33;100.00
77452;BME280;66537;52.370;4.832;2024-01-11T05:15:45;103549.16;;;-2.07;100.00
77452;BME280;66537;52.370;4.832;2024-01-11T05:18:11;103538.59;;;-2.13;100.00
77452;BME280;66537;52.370;4.832;2024-01-11T05:20:36;103533.06;;;-2.08;100.00
77452;BME280;66537;52.370;4.832;2024-01-11T05:23:02;103533.16;;;-1.93;100.00
77452;BME280;66537;52.370;4.832;2024-01-11T05:25:27;103531.31;;;-1.83;100.00
77452;BME280;66537;52.370;4.832;2024-01-11T05:27:52;103524.19;;;-1.75;100.00
77452;BME280;66537;52.370;4.832;2024-01-11T05:30:18;103513.47;;;-1.84;100.00
77452;BME280;66537;52.370;4.832;2024-01-11T05:32:43;103515.50;;;-1.65;100.00
77452;BME280;66537;52.370;4.832;2024-01-11T05:35:09;103520.66;;;-1.10;100.00
77452;BME280;66537;52.370;4.832;2024-01-11T05:37:35;103530.47;;;-1.16;100.00
77452;BME280;66537;52.370;4.832;2024-01-11T05:40:01;103538.91;;;-1.30;100.00
77452;BME280;66537;52.370;4.832;2024-01-11T05:42:26;103539.28;;;-1.37;100.00
77452;BME280;66537;52.370;4.832;2024-01-11T05:44:52;103523.72;;;-1.16;100.00
77452;BME280;66537;52.370;4.832;2024-01-11T05:47:17;103527.00;;;-1.04;100.00
77452;BME280;66537;52.370;4.832;2024-01-11T05:49:43;103536.28;;;-1.32;100.00
77452;BME280;66537;52.370;4.832;2024-01-11T05:52:08;103540.34;;;-1.21;100.00
77452;BME280;66537;52.370;4.832;2024-01-11T05:54:33;103542.38;;;-1.15;100.00
77452;BME280;66537;52.370;4.832;2024-01-11T05:56:59;103554.31;;;-1.27;100.00
77452;BME280;66537;52.370;4.832;2024-01-11T05:59:24;103556.25;;;-1.23;100.00
77452;BME280;66537;52.370;4.832;2024-01-11T06:01:50;103559.97;;;-1.31;100.00
77452;BME280;66537;52.370;4.832;2024-01-11T06:04:16;103557.97;;;-1.50;100.00
77452;BME280;66537;52.370;4.832;2024-01-11T06:06:41;103564.59;;;-1.65;100.00
77452;BME280;66537;52.370;4.832;2024-01-11T06:09:07;103563.13;;;-1.48;100.00
77452;BME280;66537;52.370;4.832;2024-01-11T06:11:33;103580.91;;;-1.61;100.00
77452;BME280;66537;52.370;4.832;2024-01-11T06:13:58;103601.50;;;-1.57;100.00
77452;BME280;66537;52.370;4.832;2024-01-11T06:16:24;103607.75;;;-1.65;100.00
77452;BME280;66537;52.370;4.832;2024-01-11T06:18:50;103622.47;;;-1.72;100.00
77452;BME280;66537;52.370;4.832;2024-01-11T06:21:15;103623.81;;;-1.77;100.00
77452;BME280;66537;52.370;4.832;2024-01-11T06:23:43;103625.50;;;-1.65;100.00
77452;BME280;66537;52.370;4.832;2024-01-11T06:26:08;103618.38;;;-1.70;100.00
77452;BME280;66537;52.370;4.832;2024-01-11T06:28:34;103623.63;;;-1.80;100.00
77452;BME280;66537;52.370;4.832;2024-01-11T06:30:59;103627.75;;;-1.69;100.00
77452;BME280;66537;52.370;4.832;2024-01-11T06:33:24;103636.03;;;-1.72;100.00
77452;BME280;66537;52.370;4.832;2024-01-11T06:35:50;103625.91;;;-1.59;100.00
77452;BME280;66537;52.370;4.832;2024-01-11T06:38:15;103640.59;;;-1.79;100.00
77452;BME280;66537;52.370;4.832;2024-01-11T06:40:41;103647.06;;;-1.71;100.00
77452;BME280;66537;52.370;4.832;2024-01-11T06:43:06;103646.00;;;-1.49;100.00
77452;BME280;66537;52.370;4.832;2024-01-11T06:45:32;103648.84;;;-1.57;100.00
77452;BME280;66537;52.370;4.832;2024-01-11T06:47:57;103643.69;;;-1.46;100.00
77452;BME280;66537;52.370;4.832;2024-01-11T06:50:22;103638.59;;;-1.33;100.00
77452;BME280;66537;52.370;4.832;2024-01-11T06:52:48;103638.50;;;-1.21;100.00
77452;BME280;66537;52.370;4.832;2024-01-11T06:55:13;103631.47;;;-1.12;100.00
77452;BME280;66537;52.370;4.832;2024-01-11T06:57:39;103631.38;;;-1.14;100.00
77452;BME280;66537;52.370;4.832;2024-01-11T07:00:05;103626.09;;;-1.17;100.00
77452;BME280;66537;52.370;4.832;2024-01-11T07:02:32;103631.28;;;-1.28;100.00
77452;BME280;66537;52.370;4.832;2024-01-11T07:04:57;103618.56;;;-1.02;100.00
77452;BME280;66537;52.370;4.832;2024-01-11T07:07:22;103616.59;;;-0.93;100.00
77452;BME280;66537;52.370;4.832;2024-01-11T07:09:48;103619.81;;;-0.96;100.00
77452;BME280;66537;52.370;4.832;2024-01-11T07:12:13;103614.53;;;-0.85;100.00
77452;BME280;66537;52.370;4.832;2024-01-11T07:14:38;103609.84;;;-0.93;100.00
77452;BME280;66537;52.370;4.832;2024-01-11T07:17:04;103603.13;;;-0.64;100.00
77452;BME280;66537;52.370;4.832;2024-01-11T07:19:29;103603.19;;;-0.77;100.00
77452;BME280;66537;52.370;4.832;2024-01-11T07:21:54;103608.22;;;-0.64;100.00
77452;BME280;66537;52.370;4.832;2024-01-11T07:24:20;103603.63;;;-0.70;100.00
77452;BME280;66537;52.370;4.832;2024-01-11T07:26:45;103604.13;;;-0.75;100.00
77452;BME280;66537;52.370;4.832;2024-01-11T07:29:10;103607.53;;;-0.75;100.00
77452;BME280;66537;52.370;4.832;2024-01-11T07:31:36;103615.47;;;-0.70;100.00
77452;BME280;66537;52.370;4.832;2024-01-11T07:34:01;103610.28;;;-0.72;100.00
77452;BME280;66537;52.370;4.832;2024-01-11T07:36:26;103613.81;;;-0.70;100.00
77452;BME280;66537;52.370;4.832;2024-01-11T07:38:53;103621.66;;;-0.80;100.00
77452;BME280;66537;52.370;4.832;2024-01-11T07:41:18;103618.63;;;-0.60;100.00
77452;BME280;66537;52.370;4.832;2024-01-11T07:43:43;103614.16;;;-0.92;100.00
77452;BME280;66537;52.370;4.832;2024-01-11T07:46:09;103633.69;;;-0.77;100.00
77452;BME280;66537;52.370;4.832;2024-01-11T07:48:34;103624.38;;;-0.77;100.00
77452;BME280;66537;52.370;4.832;2024-01-11T07:51:00;103622.53;;;-0.52;100.00
77452;BME280;66537;52.370;4.832;2024-01-11T07:53:25;103624.00;;;-0.28;100.00
77452;BME280;66537;52.370;4.832;2024-01-11T07:55:51;103616.47;;;-0.54;100.00
77452;BME280;66537;52.370;4.832;2024-01-11T07:58:17;103624.97;;;-0.26;100.00
77452;BME280;66537;52.370;4.832;2024-01-11T08:00:43;103623.56;;;-0.21;100.00
77452;BME280;66537;52.370;4.832;2024-01-11T08:03:10;103621.72;;;-0.23;100.00
77452;BME280;66537;52.370;4.832;2024-01-11T08:05:35;103624.47;;;-0.20;100.00
77452;BME280;66537;52.370;4.832;2024-01-11T08:08:01;103613.00;;;-0.14;100.00
77452;BME280;66537;52.370;4.832;2024-01-11T08:10:28;103600.34;;;0.03;100.00
77452;BME280;66537;52.370;4.832;2024-01-11T08:12:53;103610.19;;;0.11;100.00
77452;BME280;66537;52.370;4.832;2024-01-11T08:15:19;103618.44;;;0.07;100.00
77452;BME280;66537;52.370;4.832;2024-01-11T08:17:45;103623.09;;;-0.01;100.00
77452;BME280;66537;52.370;4.832;2024-01-11T08:20:11;103618.53;;;0.09;100.00
77452;BME280;66537;52.370;4.832;2024-01-11T08:22:39;103614.84;;;0.18;100.00
77452;BME280;66537;52.370;4.832;2024-01-11T08:25:04;103618.72;;;0.12;100.00
77452;BME280;66537;52.370;4.832;2024-01-11T08:27:33;103624.66;;;0.12;100.00
77452;BME280;66537;52.370;4.832;2024-01-11T08:29:59;103629.56;;;-0.06;100.00
77452;BME280;66537;52.370;4.832;2024-01-11T08:32:27;103636.19;;;0.06;100.00
77452;BME280;66537;52.370;4.832;2024-01-11T08:34:53;103650.16;;;0.27;100.00
77452;BME280;66537;52.370;4.832;2024-01-11T08:37:18;103650.69;;;0.21;100.00
77452;BME280;66537;52.370;4.832;2024-01-11T08:39:44;103647.50;;;0.40;100.00
77452;BME280;66537;52.370;4.832;2024-01-11T08:42:11;103656.38;;;0.32;100.00
77452;BME280;66537;52.370;4.832;2024-01-11T08:44:36;103657.50;;;0.51;100.00
77452;BME280;66537;52.370;4.832;2024-01-11T08:47:05;103666.28;;;0.27;100.00
77452;BME280;66537;52.370;4.832;2024-01-11T08:49:31;103660.25;;;0.25;100.00
77452;BME280;66537;52.370;4.832;2024-01-11T08:51:56;103666.19;;;0.11;100.00
77452;BME280;66537;52.370;4.832;2024-01-11T08:54:21;103670.59;;;0.43;100.00
77452;BME280;66537;52.370;4.832;2024-01-11T08:56:47;103664.88;;;0.47;100.00
77452;BME280;66537;52.370;4.832;2024-01-11T08:59:12;103674.44;;;0.51;100.00
77452;BME280;66537;52.370;4.832;2024-01-11T09:01:38;103677.16;;;0.68;100.00
77452;BME280;66537;52.370;4.832;2024-01-11T09:04:04;103678.91;;;0.84;100.00
77452;BME280;66537;52.370;4.832;2024-01-11T09:06:30;103675.97;;;1.07;100.00
77452;BME280;66537;52.370;4.832;2024-01-11T09:08:55;103675.38;;;1.27;100.00
77452;BME280;66537;52.370;4.832;2024-01-11T09:11:21;103679.31;;;1.37;100.00
77452;BME280;66537;52.370;4.832;2024-01-11T09:13:46;103680.25;;;1.39;100.00
77452;BME280;66537;52.370;4.832;2024-01-11T09:16:17;103676.13;;;1.41;100.00
77452;BME280;66537;52.370;4.832;2024-01-11T09:18:43;103680.59;;;1.61;100.00
77452;BME280;66537;52.370;4.832;2024-01-11T09:21:09;103674.88;;;1.81;100.00
77452;BME280;66537;52.370;4.832;2024-01-11T09:23:35;103676.84;;;1.87;100.00
77452;BME280;66537;52.370;4.832;2024-01-11T09:26:00;103686.28;;;1.88;100.00
77452;BME280;66537;52.370;4.832;2024-01-11T09:28:25;103694.00;;;1.73;100.00
77452;BME280;66537;52.370;4.832;2024-01-11T09:30:51;103694.47;;;1.50;100.00
77452;BME280;66537;52.370;4.832;2024-01-11T09:33:16;103707.00;;;1.77;100.00
77452;BME280;66537;52.370;4.832;2024-01-11T09:35:44;103704.44;;;1.94;100.00
77452;BME280;66537;52.370;4.832;2024-01-11T09:38:09;103706.22;;;1.95;100.00
77452;BME280;66537;52.370;4.832;2024-01-11T09:40:36;103715.84;;;2.00;100.00
77452;BME280;66537;52.370;4.832;2024-01-11T09:43:03;103714.34;;;2.04;100.00
77452;BME280;66537;52.370;4.832;2024-01-11T09:45:29;103715.47;;;2.09;100.00
77452;BME280;66537;52.370;4.832;2024-01-11T09:47:55;103711.41;;;2.12;100.00
77452;BME280;66537;52.370;4.832;2024-01-11T09:50:21;103703.41;;;2.22;100.00
77452;BME280;66537;52.370;4.832;2024-01-11T09:52:49;103702.25;;;2.33;100.00
77452;BME280;66537;52.370;4.832;2024-01-11T09:55:15;103706.66;;;2.36;100.00
77452;BME280;66537;52.370;4.832;2024-01-11T09:57:44;103701.09;;;2.44;100.00
77452;BME280;66537;52.370;4.832;2024-01-11T10:00:13;103701.84;;;2.59;100.00
77452;BME280;66537;52.370;4.832;2024-01-11T10:02:39;103699.13;;;2.72;100.00
77452;BME280;66537;52.370;4.832;2024-01-11T10:05:05;103700.94;;;2.75;100.00
77452;BME280;66537;52.370;4.832;2024-01-11T10:07:31;103703.06;;;2.84;100.00
77452;BME280;66537;52.370;4.832;2024-01-11T10:09:58;103706.94;;;2.93;100.00
77452;BME280;66537;52.370;4.832;2024-01-11T10:12:23;103702.19;;;3.01;100.00
77452;BME280;66537;52.370;4.832;2024-01-11T10:14:51;103709.72;;;2.98;100.00
77452;BME280;66537;52.370;4.832;2024-01-11T10:17:17;103704.91;;;2.86;100.00
77452;BME280;66537;52.370;4.832;2024-01-11T10:19:43;103697.38;;;3.07;100.00
77452;BME280;66537;52.370;4.832;2024-01-11T10:22:08;103698.31;;;3.26;100.00
77452;BME280;66537;52.370;4.832;2024-01-11T10:24:38;103697.59;;;3.29;100.00
77452;BME280;66537;52.370;4.832;2024-01-11T10:27:04;103708.63;;;2.93;100.00
77452;BME280;66537;52.370;4.832;2024-01-11T10:29:31;103704.44;;;3.12;100.00
77452;BME280;66537;52.370;4.832;2024-01-11T10:31:57;103706.22;;;3.13;100.00
77452;BME280;66537;52.370;4.832;2024-01-11T10:34:25;103716.94;;;2.89;100.00
77452;BME280;66537;52.370;4.832;2024-01-11T10:36:51;103723.66;;;3.04;100.00
77452;BME280;66537;52.370;4.832;2024-01-11T10:39:17;103721.19;;;2.88;100.00
77452;BME280;66537;52.370;4.832;2024-01-11T10:41:47;103715.25;;;3.24;100.00
77452;BME280;66537;52.370;4.832;2024-01-11T10:44:19;103713.13;;;3.16;100.00
77452;BME280;66537;52.370;4.832;2024-01-11T10:46:49;103725.38;;;2.86;100.00
77452;BME280;66537;52.370;4.832;2024-01-11T10:49:21;103731.50;;;2.90;100.00
77452;BME280;66537;52.370;4.832;2024-01-11T10:51:59;103736.03;;;2.95;100.00
77452;BME280;66537;52.370;4.832;2024-01-11T10:54:26;103728.63;;;2.84;100.00
77452;BME280;66537;52.370;4.832;2024-01-11T10:56:53;103728.34;;;3.13;100.00
77452;BME280;66537;52.370;4.832;2024-01-11T10:59:20;103735.72;;;2.89;100.00
77452;BME280;66537;52.370;4.832;2024-01-11T11:01:51;103733.59;;;2.98;100.00
77452;BME280;66537;52.370;4.832;2024-01-11T11:04:18;103741.28;;;2.98;100.00
77452;BME280;66537;52.370;4.832;2024-01-11T11:06:44;103728.72;;;3.20;100.00
77452;BME280;66537;52.370;4.832;2024-01-11T11:09:11;103722.50;;;3.33;100.00
77452;BME280;66537;52.370;4.832;2024-01-11T11:11:39;103721.16;;;3.41;100.00
77452;BME280;66537;52.370;4.832;2024-01-11T11:14:05;103717.44;;;3.34;100.00
77452;BME280;66537;52.370;4.832;2024-01-11T11:16:31;103710.16;;;3.61;100.00
77452;BME280;66537;52.370;4.832;2024-01-11T11:18:56;103704.31;;;3.83;100.00
77452;BME280;66537;52.370;4.832;2024-01-11T11:21:22;103703.16;;;3.95;100.00
77452;BME280;66537;52.370;4.832;2024-01-11T11:23:50;103700.81;;;4.00;100.00
77452;BME280;66537;52.370;4.832;2024-01-11T11:26:18;103695.72;;;4.20;100.00
77452;BME280;66537;52.370;4.832;2024-01-11T11:28:44;103689.47;;;4.14;100.00
77452;BME280;66537;52.370;4.832;2024-01-11T11:31:12;103690.22;;;4.11;100.00
77452;BME280;66537;52.370;4.832;2024-01-11T11:33:38;103681.94;;;4.37;100.00
77452;BME280;66537;52.370;4.832;2024-01-11T11:36:03;103674.53;;;4.24;100.00
77452;BME280;66537;52.370;4.832;2024-01-11T11:38:30;103682.69;;;4.35;100.00
77452;BME280;66537;52.370;4.832;2024-01-11T11:40:57;103676.06;;;4.40;100.00
77452;BME280;66537;52.370;4.832;2024-01-11T11:43:23;103683.22;;;4.47;100.00
77452;BME280;66537;52.370;4.832;2024-01-11T11:45:50;103682.56;;;4.52;100.00
77452;BME280;66537;52.370;4.832;2024-01-11T11:51:11;103675.69;;;4.72;100.00
77452;BME280;66537;52.370;4.832;2024-01-11T11:53:37;103671.38;;;4.71;100.00
77452;BME280;66537;52.370;4.832;2024-01-11T11:56:03;103668.38;;;4.81;100.00
77452;BME280;66537;52.370;4.832;2024-01-11T11:58:30;103666.53;;;4.79;100.00
77452;BME280;66537;52.370;4.832;2024-01-11T12:00:57;103660.66;;;4.81;100.00
77452;BME280;66537;52.370;4.832;2024-01-11T12:03:36;103655.19;;;4.94;100.00
77452;BME280;66537;52.370;4.832;2024-01-11T12:06:06;103644.25;;;4.98;100.00
77452;BME280;66537;52.370;4.832;2024-01-11T12:08:32;103648.38;;;4.95;100.00
77452;BME280;66537;52.370;4.832;2024-01-11T12:10:57;103638.91;;;4.72;100.00
77452;BME280;66537;52.370;4.832;2024-01-11T12:13:24;103635.50;;;4.50;100.00
77452;BME280;66537;52.370;4.832;2024-01-11T12:15:49;103635.72;;;4.77;100.00
77452;BME280;66537;52.370;4.832;2024-01-11T12:18:14;103623.19;;;4.85;100.00
77452;BME280;66537;52.370;4.832;2024-01-11T12:20:40;103626.00;;;4.91;100.00
77452;BME280;66537;52.370;4.832;2024-01-11T12:23:05;103625.00;;;5.09;100.00
77452;BME280;66537;52.370;4.832;2024-01-11T12:25:31;103616.25;;;5.04;100.00
77452;BME280;66537;52.370;4.832;2024-01-11T12:27:56;103611.25;;;4.85;100.00
77452;BME280;66537;52.370;4.832;2024-01-11T12:30:23;103616.38;;;4.85;100.00
77452;BME280;66537;52.370;4.832;2024-01-11T12:32:49;103615.31;;;4.80;100.00
77452;BME280;66537;52.370;4.832;2024-01-11T12:35:15;103620.66;;;4.86;100.00
77452;BME280;66537;52.370;4.832;2024-01-11T12:37:41;103621.66;;;4.90;100.00
77452;BME280;66537;52.370;4.832;2024-01-11T12:40:07;103613.50;;;5.00;100.00